South Padre Island, Texas
Current Conditions -  °F | °C
As of 3:53 PM on Monday 24 Nov 2014 (Local Time) from KPIL Reporting Station
Clear Clear  
Wind Chill: 64°   Ceiling: Unl
Heat Index: 64°   Visibility: 7mi
Dew Point: 46°   Wind: 16mph
Humidity: 52%   Direction: 10°N
Pressure: 30.01"   Gusts: NA
Location:  26.1°N, 97.17°W
Report Text: KPIL 242153Z AUTO 01014KT 7SM CLR 18/08 A3001 RMK AO2 SLP161 T01780078
Loading
Personal Weather Stations






























Interactive Weather Map New forecast layout! Learn more

10-Day Weather Forecast

Advertisements
Track Severe Weather on mobile